createdAt,value
2023-05-20T00:01:18.431Z,100119.27
2023-05-20T00:03:46.190Z,100118.61
2023-05-20T00:06:13.256Z,100114.08
2023-05-20T00:08:40.000Z,100112.57
2023-05-20T00:11:07.629Z,100114.70
2023-05-20T00:13:35.798Z,100115.41
2023-05-20T00:16:03.002Z,100113.13
2023-05-20T00:18:30.319Z,100113.58
2023-05-20T00:20:57.241Z,100110.13
2023-05-20T00:23:24.212Z,100110.62
2023-05-20T00:25:51.229Z,100108.55
2023-05-20T00:28:19.208Z,100108.81
2023-05-20T00:30:45.928Z,100111.62
2023-05-20T00:33:13.488Z,100110.58
2023-05-20T00:35:40.463Z,100109.41
2023-05-20T00:38:07.116Z,100108.20
2023-05-20T00:40:34.045Z,100110.67
2023-05-20T00:43:02.197Z,100115.92
2023-05-20T00:45:29.167Z,100115.11
2023-05-20T00:47:59.182Z,100113.38
2023-05-20T00:50:26.316Z,100110.61
2023-05-20T00:52:54.980Z,100111.45
2023-05-20T00:55:22.193Z,100106.99
2023-05-20T00:57:49.187Z,100106.60
2023-05-20T01:00:16.132Z,100105.33
2023-05-20T01:02:43.311Z,100104.77
2023-05-20T01:05:10.569Z,100101.61
2023-05-20T01:07:37.654Z,100101.81
2023-05-20T01:10:06.770Z,100101.70
2023-05-20T01:12:37.722Z,100101.27
2023-05-20T01:15:06.897Z,100098.48
2023-05-20T01:17:37.346Z,100099.53
2023-05-20T01:20:06.850Z,100100.17
2023-05-20T01:22:38.910Z,100097.77
2023-05-20T01:25:06.157Z,100102.82
2023-05-20T01:27:33.200Z,100103.91
2023-05-20T01:30:00.364Z,100100.25
2023-05-20T01:32:42.613Z,100100.67
2023-05-20T01:35:09.834Z,100098.38
2023-05-20T01:37:39.100Z,100097.88
2023-05-20T01:40:10.155Z,100097.23
2023-05-20T01:42:37.418Z,100097.07
2023-05-20T01:45:05.770Z,100097.73
2023-05-20T01:47:32.792Z,100099.00
2023-05-20T01:50:00.344Z,100099.95
2023-05-20T01:52:27.333Z,100097.02
2023-05-20T01:54:54.265Z,100095.41
2023-05-20T01:57:21.967Z,100096.23
2023-05-20T01:59:49.604Z,100098.98
2023-05-20T02:02:16.792Z,100099.16
2023-05-20T02:04:50.481Z,100099.42
2023-05-20T02:07:20.538Z,100100.98
2023-05-20T02:09:47.637Z,100098.70
2023-05-20T02:12:17.659Z,100098.20
2023-05-20T02:14:45.703Z,100098.42
2023-05-20T02:17:15.925Z,100102.08
2023-05-20T02:19:46.880Z,100097.78
2023-05-20T02:22:14.210Z,100097.05
2023-05-20T02:24:42.672Z,100100.96
2023-05-20T02:27:09.659Z,100095.14
2023-05-20T02:29:37.963Z,100104.87
2023-05-20T02:32:06.091Z,100104.66
2023-05-20T02:34:33.300Z,100105.55
2023-05-20T02:37:01.131Z,100109.09
2023-05-20T02:39:29.493Z,100106.36
2023-05-20T02:41:56.554Z,100112.96
2023-05-20T02:44:25.931Z,100117.98
2023-05-20T02:46:52.885Z,100121.09
2023-05-20T02:49:21.465Z,100121.38
2023-05-20T02:51:48.931Z,100125.99
2023-05-20T02:54:16.093Z,100125.26
2023-05-20T02:56:43.257Z,100125.13
2023-05-20T02:59:10.688Z,100128.48
2023-05-20T03:01:39.883Z,100130.20
2023-05-20T03:04:06.776Z,100130.06
2023-05-20T03:06:34.098Z,100129.80
2023-05-20T03:09:01.166Z,100130.88
2023-05-20T03:11:28.565Z,100134.36
2023-05-20T03:13:55.437Z,100135.77
2023-05-20T03:16:22.253Z,100138.20
2023-05-20T03:18:49.320Z,100137.29
2023-05-20T03:21:17.189Z,100136.74
2023-05-20T03:23:44.106Z,100137.09
2023-05-20T03:26:11.152Z,100137.14
2023-05-20T03:28:38.307Z,100135.89
2023-05-20T03:31:05.945Z,100133.13
2023-05-20T03:33:35.085Z,100135.02
2023-05-20T03:36:03.639Z,100135.69
2023-05-20T03:38:31.010Z,100137.04
2023-05-20T03:40:57.929Z,100141.16
2023-05-20T03:43:25.313Z,100135.70
2023-05-20T03:45:52.139Z,100134.92
2023-05-20T03:48:19.718Z,100135.20
2023-05-20T03:50:46.921Z,100138.12
2023-05-20T03:53:13.893Z,100141.17
2023-05-20T03:55:42.064Z,100136.73
2023-05-20T03:58:09.106Z,100140.57
2023-05-20T04:00:36.881Z,100143.44
2023-05-20T04:03:04.016Z,100145.70
2023-05-20T04:05:31.038Z,100147.07
2023-05-20T04:07:58.937Z,100149.95
2023-05-20T04:10:26.702Z,100149.28
2023-05-20T04:12:53.670Z,100153.47
2023-05-20T04:15:23.559Z,100152.13
2023-05-20T04:17:54.504Z,100153.81
2023-05-20T04:20:21.679Z,100151.23
2023-05-20T04:22:48.697Z,100150.65
2023-05-20T04:25:16.560Z,100157.14
2023-05-20T04:27:43.743Z,100156.77
2023-05-20T04:30:12.115Z,100155.34
2023-05-20T04:32:42.610Z,100155.36
2023-05-20T04:35:11.694Z,100154.67
2023-05-20T04:37:39.066Z,100158.20
2023-05-20T04:40:08.876Z,100158.65
2023-05-20T04:42:37.269Z,100162.49
2023-05-20T04:45:05.670Z,100160.38
2023-05-20T04:47:38.177Z,100165.89
2023-05-20T04:50:13.047Z,100166.64
2023-05-20T04:52:42.666Z,100171.23
2023-05-20T04:55:10.052Z,100171.88
2023-05-20T04:57:41.396Z,100166.89
2023-05-20T05:00:09.956Z,100168.89
2023-05-20T05:02:37.950Z,100166.48
2023-05-20T05:05:05.779Z,100166.70
2023-05-20T05:07:32.956Z,100167.76
2023-05-20T05:10:00.285Z,100166.40
2023-05-20T05:12:30.320Z,100167.62
2023-05-20T05:15:03.465Z,100167.30
2023-05-20T05:17:30.761Z,100166.94
2023-05-20T05:19:57.927Z,100165.97
2023-05-20T05:22:28.149Z,100173.52
2023-05-20T05:24:55.983Z,100168.08
2023-05-20T05:27:23.093Z,100172.88
2023-05-20T05:29:50.267Z,100176.09
2023-05-20T05:32:17.625Z,100182.66
2023-05-20T05:34:44.748Z,100181.24
2023-05-20T05:37:11.820Z,100179.49
2023-05-20T05:39:39.130Z,100177.40
2023-05-20T05:42:06.140Z,100179.02
2023-05-20T05:44:33.891Z,100180.33
2023-05-20T05:47:01.197Z,100178.04
2023-05-20T05:49:30.633Z,100180.06
2023-05-20T05:51:57.578Z,100180.52
2023-05-20T05:54:24.933Z,100177.54
2023-05-20T05:56:52.602Z,100178.20
2023-05-20T05:59:19.667Z,100180.29
2023-05-20T06:01:46.711Z,100180.85
2023-05-20T06:04:14.934Z,100179.84
2023-05-20T06:06:41.915Z,100182.14
2023-05-20T06:09:09.091Z,100179.65
2023-05-20T06:11:36.593Z,100171.84
2023-05-20T06:14:04.021Z,100169.27
2023-05-20T06:16:31.634Z,100169.90
2023-05-20T06:19:03.278Z,100165.56
2023-05-20T06:21:32.415Z,100167.66
2023-05-20T06:23:59.221Z,100169.81
2023-05-20T06:26:26.619Z,100165.95
2023-05-20T06:28:53.772Z,100165.77
2023-05-20T06:31:20.672Z,100166.02
2023-05-20T06:33:48.442Z,100162.81
2023-05-20T06:36:16.608Z,100159.20
2023-05-20T06:38:43.569Z,100160.27
2023-05-20T06:41:12.445Z,100160.81
2023-05-20T06:43:40.022Z,100162.77
2023-05-20T06:46:25.920Z,100162.92
2023-05-20T06:48:56.519Z,100160.06
2023-05-20T06:51:25.929Z,100155.08
2023-05-20T06:53:56.154Z,100156.62
2023-05-20T06:56:23.437Z,100162.28
2023-05-20T06:58:50.310Z,100161.50
2023-05-20T07:01:18.348Z,100161.60
2023-05-20T07:03:46.282Z,100159.66
2023-05-20T07:06:13.562Z,100159.81
2023-05-20T07:08:40.883Z,100157.79
2023-05-20T07:11:08.371Z,100162.61
2023-05-20T07:13:35.598Z,100164.90
2023-05-20T07:16:03.124Z,100167.10
2023-05-20T07:18:30.303Z,100167.67
2023-05-20T07:20:57.315Z,100167.98
2023-05-20T07:23:47.536Z,100172.84
2023-05-20T07:26:15.561Z,100162.98
2023-05-20T07:28:43.681Z,100161.80
2023-05-20T07:31:11.077Z,100166.32
2023-05-20T07:33:46.512Z,100165.04
2023-05-20T07:36:13.419Z,100164.82
2023-05-20T07:38:49.950Z,100163.52
2023-05-20T07:41:28.928Z,100160.91
2023-05-20T07:43:55.992Z,100163.98
2023-05-20T07:46:23.050Z,100162.81
2023-05-20T07:48:50.274Z,100168.20
2023-05-20T07:51:18.436Z,100169.88
2023-05-20T07:53:45.488Z,100162.98
2023-05-20T07:56:12.543Z,100157.16
2023-05-20T07:58:42.494Z,100161.01
2023-05-20T08:01:11.370Z,100158.90
2023-05-20T08:03:38.342Z,100162.20
2023-05-20T08:06:11.341Z,100159.86
2023-05-20T08:08:40.922Z,100159.39
2023-05-20T08:11:12.098Z,100156.80
2023-05-20T08:13:40.191Z,100153.77
2023-05-20T08:16:07.911Z,100157.19
2023-05-20T08:18:36.105Z,100158.66
2023-05-20T08:21:02.930Z,100155.38
2023-05-20T08:23:30.214Z,100153.64
2023-05-20T08:26:01.153Z,100156.23
2023-05-20T08:28:30.340Z,100155.14
2023-05-20T08:30:58.689Z,100154.34
2023-05-20T08:33:25.404Z,100157.89
2023-05-20T08:35:52.417Z,100153.41
2023-05-20T08:38:19.465Z,100155.81
2023-05-20T08:40:46.518Z,100154.54
2023-05-20T08:43:13.485Z,100154.61
2023-05-20T08:45:40.212Z,100151.91
2023-05-20T08:48:12.313Z,100146.73
2023-05-20T08:50:39.607Z,100151.02
2023-05-20T08:53:06.693Z,100146.42
2023-05-20T08:55:41.596Z,100141.58
2023-05-20T08:58:09.722Z,100139.67
2023-05-20T09:00:37.917Z,100137.48
2023-05-20T09:03:04.808Z,100139.63
2023-05-20T09:05:32.257Z,100146.25
2023-05-20T09:08:12.140Z,100150.20
2023-05-20T09:10:39.961Z,100155.51
2023-05-20T09:13:07.727Z,100152.13
2023-05-20T09:15:35.945Z,100156.91
2023-05-20T09:18:05.117Z,100153.36
2023-05-20T09:20:37.066Z,100147.29
2023-05-20T09:23:06.051Z,100142.36
2023-05-20T09:25:34.075Z,100140.70
2023-05-20T09:28:02.601Z,100138.92
2023-05-20T09:30:29.641Z,100145.28
2023-05-20T09:32:58.324Z,100149.94
2023-05-20T09:35:26.425Z,100149.61
2023-05-20T09:37:55.231Z,100151.43
2023-05-20T09:40:28.576Z,100147.61
2023-05-20T09:43:03.400Z,100146.27
2023-05-20T09:45:30.340Z,100147.69
2023-05-20T09:47:57.474Z,100151.50
2023-05-20T09:50:25.071Z,100151.25
2023-05-20T09:52:53.267Z,100142.54
2023-05-20T09:55:21.990Z,100140.40
2023-05-20T09:57:48.790Z,100140.83
2023-05-20T10:00:18.924Z,100141.38
2023-05-20T10:02:48.076Z,100138.73
2023-05-20T10:05:40.847Z,100140.98
2023-05-20T10:08:23.142Z,100137.27
2023-05-20T10:10:50.506Z,100139.74
2023-05-20T10:13:36.182Z,100131.14
2023-05-20T10:16:24.032Z,100131.20
2023-05-20T10:19:10.046Z,100129.52
2023-05-20T10:21:37.150Z,100128.20
2023-05-20T10:24:08.188Z,100130.05
2023-05-20T10:26:36.877Z,100127.67
2023-05-20T10:29:17.064Z,100127.91
2023-05-20T10:31:45.377Z,100125.44
2023-05-20T10:34:18.961Z,100126.83
2023-05-20T10:37:06.773Z,100127.92
2023-05-20T10:39:37.170Z,100125.48
2023-05-20T10:42:10.656Z,100123.80
2023-05-20T10:44:47.548Z,100127.45
2023-05-20T10:49:49.109Z,100126.17
2023-05-20T10:52:19.147Z,100127.73
2023-05-20T10:54:48.769Z,100121.85
2023-05-20T10:57:17.720Z,100119.30
2023-05-20T10:59:44.600Z,100118.77
2023-05-20T11:02:12.871Z,100122.35
2023-05-20T11:04:39.898Z,100121.75
2023-05-20T11:07:06.956Z,100123.91
2023-05-20T11:09:34.497Z,100120.55
2023-05-20T11:12:01.636Z,100117.80
